Archival Weather

Chicago O'Hare International

Chicago, Illinois (KORD)

Report from: Thursday, March 30, 2017 5:51 PM CDT
Current time: Sunday, November 27, 2022 3:01 AM CST

Current weather
Weather history
Weather forecast

Temperature6.7°C (44.1°F)
Wind chill3.2°C (37.7°F)
Dew point5.0°C (41.0°F)
Winds 11 kts (5.7 m/s, 12.7 mph) North (10°)
Visibility8 mi. (12.9 km)
Clouds Ceiling: Overcast 600 ft. (183 m)
Altimeter29.61 in.Hg (1003 mB)
Relative humidity89 %
Density altitude-512 ft. (-156 m)
Sea-level pressure100.3 kPa (1003 mB, 29.62 in.Hg)
Remarks Automated weather observing station with precipitation discriminator
Flight conditions Instrument Meteorological Conditions
Raw dataKORD 302251Z 01011KT 8SM OVC006 07/05 A2961 RMK AO2 SLP029 T00670050
An error has occurred. This application may no longer respond until reloaded. Reload 🗙